sensor_id;sensor_type;location;lat;lon;timestamp;P1;durP1;ratioP1;P2;durP2;ratioP2
17866;SDS011;9059;49.934;8.650;2023-09-30T00:00:19;5.47;;;1.27;;
17866;SDS011;9059;49.934;8.650;2023-09-30T00:10:22;5.57;;;0.80;;
17866;SDS011;9059;49.934;8.650;2023-09-30T00:20:26;5.18;;;1.25;;
17866;SDS011;9059;49.934;8.650;2023-09-30T00:30:29;4.15;;;0.93;;
17866;SDS011;9059;49.934;8.650;2023-09-30T00:40:33;6.18;;;1.30;;
17866;SDS011;9059;49.934;8.650;2023-09-30T00:50:38;4.25;;;1.20;;
17866;SDS011;9059;49.934;8.650;2023-09-30T01:00:43;7.03;;;1.40;;
17866;SDS011;9059;49.934;8.650;2023-09-30T01:10:46;7.70;;;1.88;;
17866;SDS011;9059;49.934;8.650;2023-09-30T01:20:50;5.70;;;1.60;;
17866;SDS011;9059;49.934;8.650;2023-09-30T01:30:56;13.02;;;2.28;;
17866;SDS011;9059;49.934;8.650;2023-09-30T01:40:59;2.85;;;1.48;;
17866;SDS011;9059;49.934;8.650;2023-09-30T01:51:03;6.78;;;1.85;;
17866;SDS011;9059;49.934;8.650;2023-09-30T02:01:06;5.50;;;1.65;;
17866;SDS011;9059;49.934;8.650;2023-09-30T02:11:10;9.23;;;2.00;;
17866;SDS011;9059;49.934;8.650;2023-09-30T02:21:15;6.80;;;1.90;;
17866;SDS011;9059;49.934;8.650;2023-09-30T02:31:19;2.40;;;1.15;;
17866;SDS011;9059;49.934;8.650;2023-09-30T02:41:22;7.88;;;1.90;;
17866;SDS011;9059;49.934;8.650;2023-09-30T02:51:26;9.85;;;1.90;;
17866;SDS011;9059;49.934;8.650;2023-09-30T03:01:29;5.45;;;1.88;;
17866;SDS011;9059;49.934;8.650;2023-09-30T03:11:34;7.10;;;2.17;;
17866;SDS011;9059;49.934;8.650;2023-09-30T03:21:37;10.63;;;1.90;;
17866;SDS011;9059;49.934;8.650;2023-09-30T03:31:42;5.28;;;1.50;;
17866;SDS011;9059;49.934;8.650;2023-09-30T03:41:46;6.75;;;1.50;;
17866;SDS011;9059;49.934;8.650;2023-09-30T03:51:50;5.63;;;1.73;;
17866;SDS011;9059;49.934;8.650;2023-09-30T04:01:55;4.90;;;1.60;;
17866;SDS011;9059;49.934;8.650;2023-09-30T04:12:00;5.47;;;1.55;;
17866;SDS011;9059;49.934;8.650;2023-09-30T04:22:06;6.40;;;1.45;;
17866;SDS011;9059;49.934;8.650;2023-09-30T04:32:11;8.27;;;1.90;;
17866;SDS011;9059;49.934;8.650;2023-09-30T04:42:15;5.53;;;1.80;;
17866;SDS011;9059;49.934;8.650;2023-09-30T04:52:20;6.43;;;1.80;;
17866;SDS011;9059;49.934;8.650;2023-09-30T05:02:26;5.80;;;1.52;;
17866;SDS011;9059;49.934;8.650;2023-09-30T05:12:31;3.83;;;1.45;;
17866;SDS011;9059;49.934;8.650;2023-09-30T05:22:34;4.50;;;1.55;;
17866;SDS011;9059;49.934;8.650;2023-09-30T05:32:38;3.63;;;1.52;;
17866;SDS011;9059;49.934;8.650;2023-09-30T05:42:41;10.27;;;1.63;;
17866;SDS011;9059;49.934;8.650;2023-09-30T05:52:46;6.78;;;1.95;;
17866;SDS011;9059;49.934;8.650;2023-09-30T06:02:49;6.22;;;1.50;;
17866;SDS011;9059;49.934;8.650;2023-09-30T06:12:55;7.00;;;1.65;;
17866;SDS011;9059;49.934;8.650;2023-09-30T06:22:59;5.60;;;2.10;;
17866;SDS011;9059;49.934;8.650;2023-09-30T06:33:04;6.00;;;1.45;;
17866;SDS011;9059;49.934;8.650;2023-09-30T06:43:09;4.53;;;1.60;;
17866;SDS011;9059;49.934;8.650;2023-09-30T06:53:13;9.85;;;1.52;;
17866;SDS011;9059;49.934;8.650;2023-09-30T07:03:17;4.50;;;2.10;;
17866;SDS011;9059;49.934;8.650;2023-09-30T07:13:26;8.27;;;1.95;;
17866;SDS011;9059;49.934;8.650;2023-09-30T07:23:29;4.72;;;1.65;;
17866;SDS011;9059;49.934;8.650;2023-09-30T07:33:34;10.40;;;2.63;;
17866;SDS011;9059;49.934;8.650;2023-09-30T07:43:37;8.60;;;2.60;;
17866;SDS011;9059;49.934;8.650;2023-09-30T07:53:41;7.15;;;2.33;;
17866;SDS011;9059;49.934;8.650;2023-09-30T08:03:44;5.32;;;2.40;;
17866;SDS011;9059;49.934;8.650;2023-09-30T08:13:49;9.02;;;2.50;;
17866;SDS011;9059;49.934;8.650;2023-09-30T08:23:52;11.30;;;2.55;;
17866;SDS011;9059;49.934;8.650;2023-09-30T08:33:56;10.25;;;2.95;;
17866;SDS011;9059;49.934;8.650;2023-09-30T08:44:00;7.35;;;3.03;;
17866;SDS011;9059;49.934;8.650;2023-09-30T08:54:07;11.60;;;3.25;;
17866;SDS011;9059;49.934;8.650;2023-09-30T09:04:10;8.43;;;2.72;;
17866;SDS011;9059;49.934;8.650;2023-09-30T09:14:14;12.35;;;2.88;;
17866;SDS011;9059;49.934;8.650;2023-09-30T09:24:26;10.63;;;2.55;;
17866;SDS011;9059;49.934;8.650;2023-09-30T09:34:31;7.50;;;2.20;;
17866;SDS011;9059;49.934;8.650;2023-09-30T09:44:34;5.82;;;2.05;;
17866;SDS011;9059;49.934;8.650;2023-09-30T09:54:40;7.23;;;2.10;;
17866;SDS011;9059;49.934;8.650;2023-09-30T10:04:44;5.82;;;1.58;;
17866;SDS011;9059;49.934;8.650;2023-09-30T10:14:48;6.32;;;1.70;;
17866;SDS011;9059;49.934;8.650;2023-09-30T10:24:52;5.05;;;1.55;;
17866;SDS011;9059;49.934;8.650;2023-09-30T10:34:57;8.10;;;1.67;;
17866;SDS011;9059;49.934;8.650;2023-09-30T10:45:00;7.85;;;1.63;;
17866;SDS011;9059;49.934;8.650;2023-09-30T10:55:05;7.35;;;1.85;;
17866;SDS011;9059;49.934;8.650;2023-09-30T11:05:09;4.72;;;1.73;;
17866;SDS011;9059;49.934;8.650;2023-09-30T11:15:15;3.58;;;1.70;;
17866;SDS011;9059;49.934;8.650;2023-09-30T11:25:18;5.63;;;1.75;;
17866;SDS011;9059;49.934;8.650;2023-09-30T11:35:23;5.90;;;1.75;;
17866;SDS011;9059;49.934;8.650;2023-09-30T11:45:26;7.80;;;1.75;;
17866;SDS011;9059;49.934;8.650;2023-09-30T11:55:30;4.13;;;1.60;;
17866;SDS011;9059;49.934;8.650;2023-09-30T12:05:33;6.38;;;1.83;;
17866;SDS011;9059;49.934;8.650;2023-09-30T12:15:39;4.78;;;1.50;;
17866;SDS011;9059;49.934;8.650;2023-09-30T12:25:42;9.10;;;1.88;;
17866;SDS011;9059;49.934;8.650;2023-09-30T12:35:50;4.78;;;1.63;;
17866;SDS011;9059;49.934;8.650;2023-09-30T12:45:53;5.75;;;1.63;;
17866;SDS011;9059;49.934;8.650;2023-09-30T12:55:57;6.18;;;1.52;;
17866;SDS011;9059;49.934;8.650;2023-09-30T13:06:01;5.38;;;1.88;;
17866;SDS011;9059;49.934;8.650;2023-09-30T13:16:06;3.63;;;1.20;;
17866;SDS011;9059;49.934;8.650;2023-09-30T13:26:09;5.45;;;1.77;;
17866;SDS011;9059;49.934;8.650;2023-09-30T13:36:13;4.95;;;1.58;;
17866;SDS011;9059;49.934;8.650;2023-09-30T13:46:16;3.17;;;1.17;;
17866;SDS011;9059;49.934;8.650;2023-09-30T13:56:20;4.80;;;1.50;;
17866;SDS011;9059;49.934;8.650;2023-09-30T14:06:23;6.05;;;1.73;;
17866;SDS011;9059;49.934;8.650;2023-09-30T14:16:27;6.35;;;1.60;;
17866;SDS011;9059;49.934;8.650;2023-09-30T14:26:30;7.85;;;1.90;;
17866;SDS011;9059;49.934;8.650;2023-09-30T14:36:35;6.90;;;1.98;;
17866;SDS011;9059;49.934;8.650;2023-09-30T14:46:38;6.35;;;2.13;;
17866;SDS011;9059;49.934;8.650;2023-09-30T14:56:43;8.07;;;2.00;;
17866;SDS011;9059;49.934;8.650;2023-09-30T15:06:47;4.88;;;1.60;;
17866;SDS011;9059;49.934;8.650;2023-09-30T15:16:51;4.32;;;1.83;;
17866;SDS011;9059;49.934;8.650;2023-09-30T15:26:54;4.50;;;1.73;;
17866;SDS011;9059;49.934;8.650;2023-09-30T15:36:59;3.92;;;1.73;;
17866;SDS011;9059;49.934;8.650;2023-09-30T15:47:02;4.60;;;1.50;;
17866;SDS011;9059;49.934;8.650;2023-09-30T15:57:08;8.05;;;1.60;;
17866;SDS011;9059;49.934;8.650;2023-09-30T16:07:11;3.33;;;1.50;;
17866;SDS011;9059;49.934;8.650;2023-09-30T16:17:16;3.70;;;1.70;;
17866;SDS011;9059;49.934;8.650;2023-09-30T16:27:18;4.68;;;1.63;;
17866;SDS011;9059;49.934;8.650;2023-09-30T16:37:24;4.18;;;1.60;;
17866;SDS011;9059;49.934;8.650;2023-09-30T16:47:27;6.10;;;1.55;;
17866;SDS011;9059;49.934;8.650;2023-09-30T16:57:31;6.18;;;2.20;;
17866;SDS011;9059;49.934;8.650;2023-09-30T17:07:34;4.65;;;1.67;;
17866;SDS011;9059;49.934;8.650;2023-09-30T17:17:38;2.88;;;1.42;;
17866;SDS011;9059;49.934;8.650;2023-09-30T17:27:41;9.23;;;1.92;;
17866;SDS011;9059;49.934;8.650;2023-09-30T17:37:46;5.50;;;2.03;;
17866;SDS011;9059;49.934;8.650;2023-09-30T17:47:49;5.57;;;1.67;;
17866;SDS011;9059;49.934;8.650;2023-09-30T17:57:53;8.95;;;1.42;;
17866;SDS011;9059;49.934;8.650;2023-09-30T18:07:58;6.95;;;2.08;;
17866;SDS011;9059;49.934;8.650;2023-09-30T18:18:02;7.15;;;1.77;;
17866;SDS011;9059;49.934;8.650;2023-09-30T18:28:13;6.43;;;1.30;;
17866;SDS011;9059;49.934;8.650;2023-09-30T18:38:17;3.47;;;1.48;;
17866;SDS011;9059;49.934;8.650;2023-09-30T18:48:22;6.05;;;1.73;;
17866;SDS011;9059;49.934;8.650;2023-09-30T18:58:27;3.35;;;1.58;;
17866;SDS011;9059;49.934;8.650;2023-09-30T19:08:30;3.40;;;1.80;;
17866;SDS011;9059;49.934;8.650;2023-09-30T19:18:35;4.15;;;1.77;;
17866;SDS011;9059;49.934;8.650;2023-09-30T19:28:38;4.25;;;1.90;;
17866;SDS011;9059;49.934;8.650;2023-09-30T19:38:42;3.85;;;2.15;;
17866;SDS011;9059;49.934;8.650;2023-09-30T19:48:45;4.40;;;2.17;;
17866;SDS011;9059;49.934;8.650;2023-09-30T19:58:49;7.60;;;2.40;;
17866;SDS011;9059;49.934;8.650;2023-09-30T20:08:52;5.78;;;2.33;;
17866;SDS011;9059;49.934;8.650;2023-09-30T20:18:56;6.00;;;2.05;;
17866;SDS011;9059;49.934;8.650;2023-09-30T20:28:59;5.90;;;2.20;;
17866;SDS011;9059;49.934;8.650;2023-09-30T20:39:05;4.65;;;2.00;;
17866;SDS011;9059;49.934;8.650;2023-09-30T20:49:12;7.70;;;2.13;;
17866;SDS011;9059;49.934;8.650;2023-09-30T20:59:16;7.32;;;2.97;;
17866;SDS011;9059;49.934;8.650;2023-09-30T21:09:19;4.78;;;2.17;;
17866;SDS011;9059;49.934;8.650;2023-09-30T21:19:23;6.85;;;1.90;;
17866;SDS011;9059;49.934;8.650;2023-09-30T21:29:26;10.25;;;3.17;;
17866;SDS011;9059;49.934;8.650;2023-09-30T21:39:31;7.30;;;2.95;;
17866;SDS011;9059;49.934;8.650;2023-09-30T21:49:34;8.07;;;2.75;;
17866;SDS011;9059;49.934;8.650;2023-09-30T21:59:39;7.30;;;2.83;;
17866;SDS011;9059;49.934;8.650;2023-09-30T22:09:42;4.00;;;2.10;;
17866;SDS011;9059;49.934;8.650;2023-09-30T22:19:47;7.65;;;2.72;;
17866;SDS011;9059;49.934;8.650;2023-09-30T22:29:50;4.22;;;2.38;;
17866;SDS011;9059;49.934;8.650;2023-09-30T22:39:54;6.65;;;1.83;;
17866;SDS011;9059;49.934;8.650;2023-09-30T22:49:57;5.07;;;1.90;;
17866;SDS011;9059;49.934;8.650;2023-09-30T23:00:02;6.72;;;2.05;;
17866;SDS011;9059;49.934;8.650;2023-09-30T23:10:08;5.15;;;1.83;;
17866;SDS011;9059;49.934;8.650;2023-09-30T23:20:14;9.23;;;1.95;;
17866;SDS011;9059;49.934;8.650;2023-09-30T23:30:21;3.78;;;1.70;;
17866;SDS011;9059;49.934;8.650;2023-09-30T23:40:27;4.53;;;1.95;;
17866;SDS011;9059;49.934;8.650;2023-09-30T23:50:30;5.05;;;2.20;;
